Taylors Island, Maryland
Current Conditions -  °F | °C
As of 8:52 PM on Friday 24 Oct 2014 (Local Time) from KNHK Reporting Station
Broken Clouds Broken Clouds  
Wind Chill: 14°   Ceiling: 25000
Heat Index: 14°   Visibility: 10mi
Dew Point:   Wind: 9mph
Humidity: 55%   Direction: 290°WNW
Pressure: 29.93"   Gusts: NA
Location:  38.47°N, 76.3°W
Report Text: KNHK 250052Z 29008KT 10SM BKN250 14/05 A2993 RMK AO2 SLP134 T01390050 $
Loading
Personal Weather Stations






























Interactive Weather Map
Tropical Storm Tracking
New forecast layout! Learn more

10-Day Weather Forecast

Advertisements
Track Severe Weather on mobile